createdAt,value
2019-02-02T00:02:14.016Z,1.01
2019-02-02T00:04:43.274Z,1.01
2019-02-02T00:07:12.608Z,1.03
2019-02-02T00:09:41.976Z,1.02
2019-02-02T00:12:11.202Z,1.03
2019-02-02T00:14:40.423Z,1.03
2019-02-02T00:17:10.894Z,1.03
2019-02-02T00:19:40.251Z,1.04
2019-02-02T00:22:09.474Z,1.03
2019-02-02T00:24:38.710Z,1.06
2019-02-02T00:27:08.345Z,1.05
2019-02-02T00:29:37.556Z,1.06
2019-02-02T00:32:08.443Z,1.06
2019-02-02T00:34:37.654Z,1.07
2019-02-02T00:37:06.822Z,1.08
2019-02-02T00:39:36.069Z,1.09
2019-02-02T00:42:05.515Z,1.10
2019-02-02T00:44:36.184Z,1.11
2019-02-02T00:47:05.667Z,1.12
2019-02-02T00:49:34.878Z,1.13
2019-02-02T00:52:04.172Z,1.13
2019-02-02T00:54:33.392Z,1.12
2019-02-02T00:57:02.761Z,1.12
2019-02-02T00:59:32.068Z,1.12
2019-02-02T01:02:01.244Z,0.34
2019-02-02T01:04:30.450Z,1.13
2019-02-02T01:06:59.664Z,1.13
2019-02-02T01:09:28.991Z,1.11
2019-02-02T01:11:58.430Z,1.10
2019-02-02T01:14:27.667Z,1.10
2019-02-02T01:16:56.969Z,1.11
2019-02-02T01:19:26.172Z,1.12
2019-02-02T01:21:55.352Z,1.13
2019-02-02T01:24:24.598Z,1.13
2019-02-02T01:26:53.807Z,1.14
2019-02-02T01:29:22.988Z,1.14
2019-02-02T01:31:52.237Z,1.16
2019-02-02T01:34:21.430Z,1.17
2019-02-02T01:36:50.622Z,1.19
2019-02-02T01:39:19.843Z,1.19
2019-02-02T01:41:49.029Z,1.19
2019-02-02T01:44:18.501Z,1.20
2019-02-02T01:46:47.777Z,1.20
2019-02-02T01:49:17.125Z,1.18
2019-02-02T01:51:46.392Z,1.19
2019-02-02T01:54:15.570Z,1.19
2019-02-02T01:56:44.819Z,1.20
2019-02-02T01:59:13.959Z,1.19
2019-02-02T02:01:43.215Z,1.17
2019-02-02T02:04:12.471Z,1.17
2019-02-02T02:06:41.786Z,1.19
2019-02-02T02:09:11.909Z,1.17
2019-02-02T02:11:41.189Z,1.18
2019-02-02T02:14:10.827Z,1.16
2019-02-02T02:16:40.066Z,1.15
2019-02-02T02:19:09.316Z,1.15
2019-02-02T02:21:38.504Z,1.15
2019-02-02T02:24:07.890Z,1.16
2019-02-02T02:26:37.209Z,1.15
2019-02-02T02:29:06.438Z,1.15
2019-02-02T02:31:35.984Z,1.15
2019-02-02T02:34:05.186Z,1.16
2019-02-02T02:36:34.368Z,1.17
2019-02-02T02:39:04.693Z,1.18
2019-02-02T02:41:33.886Z,1.18
2019-02-02T02:44:03.150Z,1.18
2019-02-02T02:46:32.429Z,1.18
2019-02-02T02:49:01.636Z,1.19
2019-02-02T02:51:30.860Z,1.20
2019-02-02T02:54:00.094Z,1.20
2019-02-02T02:56:29.655Z,1.20
2019-02-02T02:58:59.738Z,1.19
2019-02-02T03:01:29.023Z,1.20
2019-02-02T03:03:58.211Z,1.20
2019-02-02T03:06:27.410Z,1.21
2019-02-02T03:08:56.677Z,1.24
2019-02-02T03:11:25.965Z,1.25
2019-02-02T03:13:56.502Z,1.26
2019-02-02T03:16:26.078Z,1.28
2019-02-02T03:18:55.335Z,1.28
2019-02-02T03:21:24.481Z,1.30
2019-02-02T03:23:53.725Z,1.30
2019-02-02T03:26:22.934Z,1.30
2019-02-02T03:28:53.577Z,1.32
2019-02-02T03:31:23.293Z,1.33
2019-02-02T03:33:52.576Z,1.34
2019-02-02T03:36:21.763Z,1.32
2019-02-02T03:38:51.012Z,1.34
2019-02-02T03:41:20.235Z,1.33
2019-02-02T03:43:49.470Z,1.31
2019-02-02T03:46:18.692Z,1.31
2019-02-02T03:48:47.925Z,1.32
2019-02-02T03:51:17.132Z,1.33
2019-02-02T03:53:46.380Z,1.32
2019-02-02T03:56:15.587Z,1.30
2019-02-02T03:58:44.848Z,1.29
2019-02-02T04:01:14.088Z,1.28
2019-02-02T04:03:43.475Z,1.28
2019-02-02T04:06:12.750Z,1.28
2019-02-02T04:08:42.010Z,1.27
2019-02-02T04:11:11.208Z,1.25
2019-02-02T04:13:40.419Z,1.24
2019-02-02T04:16:09.784Z,1.23
2019-02-02T04:18:39.300Z,1.23
2019-02-02T04:21:08.480Z,1.22
2019-02-02T04:23:37.757Z,1.21
2019-02-02T04:26:06.978Z,1.22
2019-02-02T04:28:36.177Z,1.19
2019-02-02T04:31:05.411Z,1.18
2019-02-02T04:33:34.611Z,1.17
2019-02-02T04:36:03.830Z,1.17
2019-02-02T04:38:33.145Z,1.14
2019-02-02T04:41:02.330Z,1.13
2019-02-02T04:43:31.536Z,1.11
2019-02-02T04:46:00.763Z,1.12
2019-02-02T04:48:32.392Z,1.13
2019-02-02T04:51:00.984Z,1.10
2019-02-02T04:53:30.275Z,1.09
2019-02-02T04:55:59.512Z,1.09
2019-02-02T04:58:28.823Z,1.11
2019-02-02T05:00:58.038Z,1.08
2019-02-02T05:03:27.247Z,1.07
2019-02-02T05:05:56.462Z,1.04
2019-02-02T05:08:25.721Z,1.01
2019-02-02T05:10:54.922Z,0.99
2019-02-02T05:13:24.169Z,0.97
2019-02-02T05:15:53.439Z,0.94
2019-02-02T05:18:22.820Z,0.26
2019-02-02T05:20:52.296Z,0.91
2019-02-02T05:23:21.549Z,0.90
2019-02-02T05:25:50.804Z,0.91
2019-02-02T05:28:19.992Z,0.92
2019-02-02T05:30:49.217Z,0.95
2019-02-02T05:33:18.421Z,1.00
2019-02-02T05:35:47.682Z,1.02
2019-02-02T05:38:16.884Z,1.06
2019-02-02T05:40:46.279Z,1.08
2019-02-02T05:43:15.520Z,1.08
2019-02-02T05:45:44.791Z,1.11
2019-02-02T05:48:13.975Z,1.13
2019-02-02T05:50:43.177Z,1.16
2019-02-02T05:53:12.461Z,1.17
2019-02-02T05:55:41.666Z,1.20
2019-02-02T05:58:10.859Z,1.19
2019-02-02T06:00:43.375Z,1.20
2019-02-02T06:03:12.593Z,1.20
2019-02-02T06:05:41.794Z,1.22
2019-02-02T06:08:11.133Z,1.19
2019-02-02T06:10:40.450Z,1.03
2019-02-02T06:13:09.665Z,1.17
2019-02-02T06:15:38.992Z,1.19
2019-02-02T06:18:08.208Z,1.18
2019-02-02T06:20:37.540Z,1.18
2019-02-02T06:23:07.061Z,1.17
2019-02-02T06:25:36.313Z,1.17
2019-02-02T06:28:06.118Z,1.18
2019-02-02T06:30:35.393Z,1.18
2019-02-02T06:33:04.689Z,1.19
2019-02-02T06:35:33.912Z,1.17
2019-02-02T06:38:03.153Z,1.18
2019-02-02T06:40:32.375Z,1.19
2019-02-02T06:43:01.574Z,1.21
2019-02-02T06:45:33.061Z,1.22
2019-02-02T06:48:02.300Z,1.24
2019-02-02T06:50:31.603Z,1.26
2019-02-02T06:53:01.230Z,1.26
2019-02-02T06:55:30.433Z,1.26
2019-02-02T06:57:59.640Z,1.26
2019-02-02T07:00:28.911Z,1.28
2019-02-02T07:02:58.223Z,1.28
2019-02-02T07:05:27.590Z,1.29
2019-02-02T07:07:56.898Z,1.28
2019-02-02T07:10:27.123Z,1.30
2019-02-02T07:12:56.333Z,1.29
2019-02-02T07:15:28.230Z,1.31
2019-02-02T07:17:57.723Z,1.33
2019-02-02T07:20:26.997Z,1.33
2019-02-02T07:22:59.012Z,1.34
2019-02-02T07:25:28.451Z,1.36
2019-02-02T07:27:57.959Z,1.38
2019-02-02T07:30:29.054Z,1.39
2019-02-02T07:32:58.274Z,1.40
2019-02-02T07:35:27.503Z,1.40
2019-02-02T07:37:56.758Z,1.39
2019-02-02T07:40:26.016Z,1.40
2019-02-02T07:42:55.328Z,1.42
2019-02-02T07:45:27.198Z,1.40
2019-02-02T07:47:56.574Z,1.40
2019-02-02T07:50:26.282Z,1.38
2019-02-02T07:52:55.640Z,1.41
2019-02-02T07:55:24.841Z,1.40
2019-02-02T07:57:54.033Z,1.41
2019-02-02T08:00:39.760Z,1.42
2019-02-02T08:03:01.465Z,1.44
2019-02-02T08:05:30.726Z,1.44
2019-02-02T08:08:00.267Z,1.46
2019-02-02T08:10:29.480Z,1.44
2019-02-02T08:12:58.715Z,1.45
2019-02-02T08:15:29.708Z,1.45
2019-02-02T08:17:58.929Z,1.48
2019-02-02T08:20:28.136Z,0.79
2019-02-02T08:22:57.412Z,1.53
2019-02-02T08:25:26.680Z,1.55
2019-02-02T08:27:56.011Z,1.58
2019-02-02T08:30:28.016Z,1.58
2019-02-02T08:33:00.068Z,1.59
2019-02-02T08:35:29.561Z,1.55
2019-02-02T08:37:59.327Z,1.50
2019-02-02T08:40:28.562Z,1.45
2019-02-02T08:42:58.164Z,1.45
2019-02-02T08:45:27.410Z,1.46
2019-02-02T08:47:56.616Z,1.47
2019-02-02T08:50:28.492Z,1.50
2019-02-02T08:52:57.766Z,1.52
2019-02-02T08:55:27.092Z,1.55
2019-02-02T08:57:56.356Z,1.57
2019-02-02T09:00:25.581Z,1.58
2019-02-02T09:02:54.777Z,1.62
2019-02-02T09:05:24.458Z,1.62
2019-02-02T09:07:53.838Z,1.63
2019-02-02T09:10:26.498Z,1.65
2019-02-02T09:12:55.950Z,1.65
2019-02-02T09:15:25.239Z,1.68
2019-02-02T09:17:54.441Z,1.69
2019-02-02T09:20:23.755Z,1.70
2019-02-02T09:23:03.874Z,1.72
2019-02-02T09:25:23.976Z,1.74
2019-02-02T09:27:53.359Z,1.77
2019-02-02T09:30:25.356Z,1.78
2019-02-02T09:32:54.551Z,1.81
2019-02-02T09:35:23.759Z,1.84
2019-02-02T09:37:53.127Z,1.85
2019-02-02T09:40:25.707Z,1.85
2019-02-02T09:42:55.461Z,1.88
2019-02-02T09:45:24.934Z,1.91
2019-02-02T09:47:54.230Z,1.91
2019-02-02T09:50:24.453Z,1.71
2019-02-02T09:52:53.877Z,1.96
2019-02-02T09:55:24.166Z,1.95
2019-02-02T09:57:55.718Z,1.94
2019-02-02T10:00:27.310Z,1.92
2019-02-02T10:02:56.865Z,1.91
2019-02-02T10:05:26.652Z,1.86
2019-02-02T10:07:56.209Z,1.86
2019-02-02T10:10:27.400Z,1.85
2019-02-02T10:12:56.711Z,1.83
2019-02-02T10:15:26.151Z,1.81
2019-02-02T10:17:55.336Z,1.03
2019-02-02T10:20:26.477Z,1.07
2019-02-02T10:22:56.052Z,1.83
2019-02-02T10:25:27.153Z,1.81
2019-02-02T10:27:56.700Z,1.79
2019-02-02T10:30:31.426Z,1.77
2019-02-02T10:33:00.786Z,1.77
2019-02-02T10:35:30.178Z,1.75
2019-02-02T10:37:59.439Z,1.72
2019-02-02T10:40:29.999Z,1.61
2019-02-02T10:43:01.310Z,1.49
2019-02-02T10:45:34.472Z,1.41
2019-02-02T10:48:04.145Z,1.37
2019-02-02T10:50:33.632Z,1.35
2019-02-02T10:53:02.855Z,1.35
2019-02-02T10:55:32.131Z,1.35
2019-02-02T10:58:01.358Z,1.35
2019-02-02T11:00:32.570Z,1.35
2019-02-02T11:03:01.973Z,1.37
2019-02-02T11:05:31.237Z,1.40
2019-02-02T11:08:01.421Z,1.42
2019-02-02T11:10:31.401Z,1.42
2019-02-02T11:13:00.653Z,1.41
2019-02-02T11:15:30.182Z,1.40
2019-02-02T11:17:59.898Z,1.41
2019-02-02T11:20:33.333Z,1.42
2019-02-02T11:23:04.458Z,1.44
2019-02-02T11:25:33.660Z,1.45
2019-02-02T11:28:02.865Z,1.47
2019-02-02T11:30:32.603Z,1.46
2019-02-02T11:33:01.923Z,1.48
2019-02-02T11:35:31.126Z,1.49
2019-02-02T11:38:00.463Z,1.50
2019-02-02T11:40:34.381Z,1.51
2019-02-02T11:43:05.089Z,1.54
2019-02-02T11:45:34.383Z,1.55
2019-02-02T11:48:03.718Z,1.55
2019-02-02T11:50:32.984Z,1.54
2019-02-02T11:53:02.225Z,1.54
2019-02-02T11:55:31.500Z,1.52
2019-02-02T11:58:00.841Z,1.49
2019-02-02T12:00:32.499Z,1.48
2019-02-02T12:03:04.336Z,1.48
2019-02-02T12:05:32.718Z,1.49
2019-02-02T12:08:01.968Z,1.49
2019-02-02T12:10:31.341Z,1.48
2019-02-02T12:13:00.580Z,1.47
2019-02-02T12:15:29.914Z,1.48
2019-02-02T12:17:59.590Z,1.46
2019-02-02T12:20:29.276Z,1.44
2019-02-02T12:22:58.698Z,1.44
2019-02-02T12:25:27.939Z,1.42
2019-02-02T12:27:57.184Z,1.42
2019-02-02T12:30:34.094Z,1.42
2019-02-02T12:33:03.822Z,1.41
2019-02-02T12:35:33.210Z,1.41
2019-02-02T12:38:04.824Z,1.41
2019-02-02T12:40:34.083Z,1.43
2019-02-02T12:43:03.339Z,1.42
2019-02-02T12:45:39.313Z,0.74
2019-02-02T12:48:08.817Z,1.40
2019-02-02T12:50:38.000Z,1.37
2019-02-02T12:53:07.261Z,1.35
2019-02-02T12:55:36.460Z,1.36
2019-02-02T12:58:06.755Z,1.36
2019-02-02T13:00:36.064Z,1.38
2019-02-02T13:03:05.740Z,1.39
2019-02-02T13:05:35.103Z,1.39
2019-02-02T13:08:06.879Z,1.39
2019-02-02T13:10:38.180Z,1.40
2019-02-02T13:13:07.455Z,1.41
2019-02-02T13:15:36.739Z,1.40
2019-02-02T13:18:06.073Z,1.39
2019-02-02T13:20:35.503Z,1.43
2019-02-02T13:23:04.776Z,1.47
2019-02-02T13:25:34.073Z,1.47
2019-02-02T13:28:03.302Z,1.44
2019-02-02T13:30:34.423Z,1.41
2019-02-02T13:33:03.716Z,1.40
2019-02-02T13:35:35.069Z,1.40
2019-02-02T13:38:04.592Z,1.37
2019-02-02T13:40:37.515Z,1.36
2019-02-02T13:43:06.781Z,1.35
2019-02-02T13:45:38.201Z,1.34
2019-02-02T13:48:07.736Z,1.34
2019-02-02T13:50:37.584Z,1.34
2019-02-02T13:53:08.411Z,1.34
2019-02-02T13:55:39.930Z,1.35
2019-02-02T13:58:10.570Z,1.34
2019-02-02T14:00:41.112Z,1.35
2019-02-02T14:03:10.573Z,1.34
2019-02-02T14:05:41.243Z,1.34
2019-02-02T14:08:10.704Z,1.30
2019-02-02T14:10:40.088Z,1.28
2019-02-02T14:13:09.289Z,1.29
2019-02-02T14:15:39.268Z,-2.19
2019-02-02T14:18:08.888Z,1.27
2019-02-02T14:20:38.126Z,1.26
2019-02-02T14:23:07.680Z,1.24
2019-02-02T14:25:36.889Z,1.26
2019-02-02T14:28:06.094Z,1.25
2019-02-02T14:30:35.419Z,1.25
2019-02-02T14:33:14.145Z,1.27
2019-02-02T14:35:38.504Z,1.27
2019-02-02T14:38:07.772Z,1.26
2019-02-02T14:40:37.552Z,1.28
2019-02-02T14:43:06.753Z,1.28
2019-02-02T14:45:36.070Z,1.27
2019-02-02T14:48:05.353Z,1.26
2019-02-02T14:50:34.676Z,1.23
2019-02-02T14:53:05.236Z,1.22
2019-02-02T14:55:34.706Z,1.20
2019-02-02T14:58:03.888Z,1.18
2019-02-02T15:00:33.142Z,1.16
2019-02-02T15:03:03.444Z,1.14
2019-02-02T15:05:42.398Z,1.14
2019-02-02T15:08:05.983Z,1.17
2019-02-02T15:10:35.210Z,1.16
2019-02-02T15:13:04.465Z,1.16
2019-02-02T15:15:33.786Z,1.17
2019-02-02T15:18:03.001Z,1.18
2019-02-02T15:20:34.342Z,1.19
2019-02-02T15:23:03.899Z,1.20
2019-02-02T15:25:34.664Z,1.21
2019-02-02T15:28:03.951Z,1.23
2019-02-02T15:30:33.674Z,1.22
2019-02-02T15:33:03.514Z,1.21
2019-02-02T15:35:34.400Z,1.21
2019-02-02T15:38:03.687Z,1.20
2019-02-02T15:40:33.176Z,1.20
2019-02-02T15:43:02.455Z,1.19
2019-02-02T15:45:32.024Z,1.17
2019-02-02T15:48:01.428Z,1.15
2019-02-02T15:50:30.715Z,1.16
2019-02-02T15:53:00.575Z,1.17
2019-02-02T15:55:30.325Z,1.18
2019-02-02T15:58:00.442Z,1.17
2019-02-02T16:00:34.813Z,1.15
2019-02-02T16:03:04.931Z,1.14
2019-02-02T16:05:34.922Z,1.13
2019-02-02T16:08:09.980Z,1.12
2019-02-02T16:10:39.197Z,1.11
2019-02-02T16:13:08.524Z,1.11
2019-02-02T16:15:37.759Z,1.11
2019-02-02T16:18:07.193Z,1.10
2019-02-02T16:20:42.278Z,1.09
2019-02-02T16:23:11.978Z,1.08
2019-02-02T16:25:41.780Z,1.08
2019-02-02T16:28:11.008Z,1.08
2019-02-02T16:30:40.306Z,1.07
2019-02-02T16:33:09.676Z,1.05
2019-02-02T16:35:38.908Z,1.06
2019-02-02T16:38:09.172Z,1.04
2019-02-02T16:40:38.396Z,1.02
2019-02-02T16:43:09.925Z,1.02
2019-02-02T16:45:39.202Z,1.02
2019-02-02T16:48:08.888Z,0.98
2019-02-02T16:50:38.207Z,0.97
2019-02-02T16:53:07.396Z,0.97
2019-02-02T16:55:36.654Z,0.96
2019-02-02T16:58:05.986Z,0.94
2019-02-02T17:00:35.263Z,0.93
2019-02-02T17:03:06.053Z,0.93
2019-02-02T17:05:35.399Z,0.91
2019-02-02T17:08:05.128Z,0.90
2019-02-02T17:10:38.476Z,0.89
2019-02-02T17:13:07.999Z,0.91
2019-02-02T17:15:40.094Z,0.91
2019-02-02T17:18:09.417Z,0.93
2019-02-02T17:20:45.165Z,0.92
2019-02-02T17:23:14.487Z,0.91
2019-02-02T17:25:43.744Z,0.89
2019-02-02T17:28:13.256Z,0.90
2019-02-02T17:30:42.836Z,0.89
2019-02-02T17:33:16.252Z,0.90
2019-02-02T17:35:46.013Z,0.87
2019-02-02T17:38:15.215Z,0.88
2019-02-02T17:40:44.482Z,0.87
2019-02-02T17:43:35.613Z,0.89
2019-02-02T17:46:10.990Z,0.88
2019-02-02T17:48:42.031Z,0.88
2019-02-02T17:51:12.870Z,0.88
2019-02-02T17:53:44.017Z,0.88
2019-02-02T17:56:15.912Z,0.87
2019-02-02T17:58:46.598Z,0.88
2019-02-02T18:01:19.629Z,0.88
2019-02-02T18:03:50.669Z,0.88
2019-02-02T18:06:30.039Z,0.89
2019-02-02T18:08:59.710Z,0.88
2019-02-02T18:11:29.166Z,0.91
2019-02-02T18:14:07.558Z,0.91
2019-02-02T18:16:39.351Z,0.92
2019-02-02T18:19:11.518Z,0.92
2019-02-02T18:21:48.055Z,0.93
2019-02-02T18:24:19.972Z,0.94
2019-02-02T18:27:05.965Z,0.91
2019-02-02T18:29:35.569Z,0.91
2019-02-02T18:32:13.829Z,0.93
2019-02-02T18:34:58.320Z,0.93
2019-02-02T18:37:50.356Z,0.93
2019-02-02T18:40:45.179Z,0.95
2019-02-02T18:43:20.291Z,0.95
2019-02-02T18:45:54.652Z,0.93
2019-02-02T18:48:33.432Z,0.93
2019-02-02T18:51:32.464Z,0.93
2019-02-02T18:54:02.352Z,0.91
2019-02-02T18:56:36.724Z,0.93
2019-02-02T19:02:18.359Z,0.92
2019-02-02T19:05:48.811Z,0.92
2019-02-02T19:08:54.751Z,0.92
2019-02-02T19:11:27.134Z,0.90
2019-02-02T19:14:01.091Z,0.91
2019-02-02T19:17:00.808Z,0.90
2019-02-02T19:19:30.334Z,0.90
2019-02-02T19:22:04.148Z,0.90
2019-02-02T19:24:42.350Z,0.90
2019-02-02T19:27:18.301Z,0.91
2019-02-02T19:29:51.305Z,0.90
2019-02-02T19:32:20.974Z,0.92
2019-02-02T19:35:00.360Z,0.92
2019-02-02T19:37:40.176Z,0.93
2019-02-02T19:40:12.412Z,0.93
2019-02-02T19:42:46.095Z,0.92
2019-02-02T19:45:21.298Z,0.93
2019-02-02T19:47:51.487Z,0.95
2019-02-02T19:50:25.559Z,0.95
2019-02-02T19:53:00.108Z,0.96
2019-02-02T19:55:40.430Z,0.95
2019-02-02T19:58:11.768Z,0.95
2019-02-02T20:00:45.741Z,0.94
2019-02-02T20:03:26.390Z,0.95
2019-02-02T20:06:11.535Z,0.96
2019-02-02T20:08:44.504Z,0.98
2019-02-02T20:11:35.837Z,0.97
2019-02-02T20:14:30.832Z,0.98
2019-02-02T20:17:00.133Z,0.99
2019-02-02T20:19:33.736Z,1.00
2019-02-02T20:22:04.083Z,1.01
2019-02-02T20:24:33.301Z,1.03
2019-02-02T20:27:05.035Z,1.02
2019-02-02T20:29:39.526Z,1.03
2019-02-02T20:32:16.300Z,1.03
2019-02-02T20:34:52.014Z,1.03
2019-02-02T20:37:56.605Z,1.03
2019-02-02T20:40:58.502Z,1.04
2019-02-02T20:43:54.987Z,1.02
2019-02-02T20:46:35.217Z,1.00
2019-02-02T20:49:08.793Z,1.00
2019-02-02T20:54:30.282Z,0.94
2019-02-02T21:00:49.824Z,0.91
2019-02-02T21:03:38.852Z,0.90
2019-02-02T21:13:14.952Z,0.85
2019-02-02T21:15:47.664Z,0.83
2019-02-02T21:18:25.405Z,0.85
2019-02-02T21:21:04.562Z,0.84
2019-02-02T21:23:34.783Z,0.84
2019-02-02T21:26:06.421Z,0.82
2019-02-02T21:28:50.043Z,0.80
2019-02-02T21:31:20.026Z,0.82
2019-02-02T21:33:52.060Z,0.83
2019-02-02T21:36:25.109Z,0.83
2019-02-02T21:38:56.420Z,0.83
2019-02-02T21:41:26.711Z,0.83
2019-02-02T21:44:02.364Z,0.83
2019-02-02T21:46:31.533Z,0.82
2019-02-02T21:49:04.038Z,0.82
2019-02-02T21:51:39.195Z,0.80
2019-02-02T21:54:12.763Z,0.79
2019-02-02T21:56:46.779Z,0.79
2019-02-02T21:59:29.457Z,0.81
2019-02-02T22:02:08.748Z,0.81
2019-02-02T22:04:52.231Z,0.82
2019-02-02T22:08:14.640Z,0.81
2019-02-02T22:11:10.625Z,0.80
2019-02-02T22:14:28.648Z,0.78
2019-02-02T22:17:42.052Z,0.78
2019-02-02T22:20:12.716Z,0.76
2019-02-02T22:22:48.636Z,0.74
2019-02-02T22:28:36.294Z,0.74
2019-02-02T22:31:05.531Z,0.73
2019-02-02T22:33:50.488Z,0.71
2019-02-02T22:36:32.056Z,0.69
2019-02-02T22:39:46.318Z,0.69
2019-02-02T22:43:18.896Z,0.68
2019-02-02T22:46:15.211Z,0.66
2019-02-02T22:59:27.029Z,0.60
2019-02-02T23:02:20.995Z,0.57
2019-02-02T23:05:28.215Z,0.58
2019-02-02T23:08:25.329Z,0.57
2019-02-02T23:11:47.195Z,0.57
2019-02-02T23:14:48.964Z,0.57
2019-02-02T23:17:19.106Z,0.60
2019-02-02T23:19:48.351Z,0.59
2019-02-02T23:22:18.790Z,0.59
2019-02-02T23:24:48.050Z,0.59
2019-02-02T23:27:17.268Z,0.61
2019-02-02T23:29:46.516Z,0.61
2019-02-02T23:32:15.715Z,0.62
2019-02-02T23:34:44.912Z,0.62
2019-02-02T23:37:14.227Z,0.64
2019-02-02T23:39:43.667Z,0.63
2019-02-02T23:42:12.850Z,0.62
2019-02-02T23:44:42.198Z,0.61
2019-02-02T23:47:11.382Z,0.61
2019-02-02T23:49:40.851Z,0.58
2019-02-02T23:52:10.074Z,0.56
2019-02-02T23:54:39.618Z,0.56
2019-02-02T23:57:08.808Z,0.58
2019-02-02T23:59:38.141Z,0.58
